Karachi, Pakistan
Current Conditions -  °F | °C
As of 10:55 AM on Thursday 23 Oct 2014 (Local Time) from OPKC Reporting Station
Clear Clear  
Wind Chill: 93°   Ceiling: Unl
Heat Index: 93°   Visibility: 4mi
Dew Point: 46°   Wind: 7mph
Humidity: 20%   Direction: 300°WNW
Pressure: 29.97"   Gusts: NA
Location:  24.86°N, 67.01°E
Report Text: OPKC 230555Z 30006KT 6000 NSC 34/08 Q1015 NOSIG
Loading
Personal Weather Stations






























Interactive Weather Map
Tropical Storm Tracking
New forecast layout! Learn more

10-Day Weather Forecast

Advertisements
Track Severe Weather on mobile